KGVE

Gordonsville Municipal Airport

Gordonsville, Virginia, USA
METAR KGVE 161415Z AUTO 21007KT 10SM CLR M01/M05 A3016 RMK AO1 T10111051
Observed Flight Rules
Dec-16 @ 14:15 UTC (26 minutes ago) Visual Flight Rules
Wind Visibility Clouds
210° at 7 knots 10 miles
  • Clear skies
Temperatures Readings
Current -1°C / 30°F
Dewpoint -5°C / 23°F
Humidity 75%
Altimeter 30.16" Hg
Pressure 1021 hPa
Elevation 138
METAR KGVE 161415Z AUTO 21007KT 10SM CLR M01/M05 A3016 RMK AO1 T10111051
Observed Flight Rules
Dec-16 @ 14:15 UTC
(26 minutes ago)
VFR
Wind Visibility
210° at 7 knots 10 miles
Clouds
  • Clear skies
Temperature Dewpoint
-1°C / 30°F -5°C / 23°F
Humidity Altimeter Pressure
75% 30.16" Hg 1021 hPa